aviador You're here:

KHBG Decoded Metar

HATTIESBURG in MS, USA
Report Time2018-07-22 13:53:00
UTC Time2018-07-22 14:21:10
Flight Rules vfr VFR
Wind270° at 08 kt
W.Decomp.*RWY 31: 6.2 kt HW 5 kt LCW
W.Rank270° ranks 29
Current wind is above 270° avg. (6.0)
Visibility9999 m
Phenomena:N/A
Clouds:N/A
Expected CloudBase > 2,000 ft AGL from Temp-Dew spread
CeilingNone
Temp29°C (ISA +14)
Dew Point24°C (74% RH)
Heat Index33.5°C
QNH1013 hPa
Density Alt2,175 ft
Elevation144 ft
Report Wrong Elevation
Raw Report
KHBG 221353Z AUTO 27008KT 10SM CLR 29/24 A2990 RMK AO2 SLP120
T02940244 TSNO=

Extra information for KHBG:More info

Metar Taf Metar & Taf Last 4 Metars F.Rules Stats Wind Profile Meteogram Temp Stats Airport Information Weather charts Add Link Nearby VenuesMetar ALERT Operation Metar Decoded Social comments

AIRNAV info for KHBG